Terminal Aerodrome Forecast
Issued by NWS Blacksburg, VA

Home | Current Version | Previous Version | Text Only | Print | Product List | Glossary On
Versions: 1 2 3 4 5 6 7 8 9 10 11 12
000
FTUS41 KRNK 111124
TAFDAN
TAF
KDAN 111124Z 1112/1212 VRB03KT P6SM SCT120
     FM111600 16006KT P6SM FEW140
     FM112200 18004KT P6SM BKN040
     FM120200 19005KT P6SM BKN015 OVC025
     FM120600 25004KT P6SM OVC010 WS020/22040KT=

USA.gov is the U.S. government's official web portal to all federal, state and local government web resources and services.